La Espada — WDI7035 — position and weather

sailwx.info

Track history (hours):
 
Tides and Currents Weather Stations Pressure Air Temp Water Temp Dewpoint Dewpoint Depression Visibility Wind Speed Wind Dir Waves Ship Positions

La Espada

Owner: Harbor Breeze Cruises, Inc., Rancho Palos Verdes, CA. More information available from US FCC via Universal Licensing System and Coast Guard Vessel Documentation Center.

Last reported at 2018-Jun-19 00:12 UTC. Time now 2018-Jun-19 04:23 UTC.
Position N 33°46' W 118°12'.

Length 25 m.

MMSI: 367724740.

Date/timePositionNaut miles runAvg speedWind from/ knotsBaromVisibWave heightAir tempDewpointWater temp
2018-Jun-19 00:12N 33°46' W 118°12'1 6.7
2018-Jun-19 00:00N 33°45' W 118°11'5 9.6
2018-Jun-18 23:30N 33°44' W 118°17'0 0.0
2018-Jun-18 23:00N 33°44' W 118°17'5 9.2
2018-Jun-18 22:29N 33°45' W 118°11'1 1.7
2018-Jun-18 22:00N 33°46' W 118°12'1 3.0
2018-Jun-18 21:30N 33°46' W 118°13'2 3.7
2018-Jun-18 21:00N 33°44' W 118°12'1 2.6
2018-Jun-18 20:30N 33°46' W 118°12'0 0.0
2018-Jun-18 19:59N 33°46' W 118°12'0 0.0
2018-Jun-18 19:30N 33°46' W 118°12'0 0.0
2018-Jun-18 01:51N 33°46' W 118°12'0 0.0
2018-Jun-18 01:30N 33°46' W 118°12'0 0.0
2018-Jun-18 01:00N 33°46' W 118°12'0 0.9
2018-Jun-18 00:30N 33°45' W 118°11'816.0
2018-Jun-18 00:00N 33°37' W 118°12'3 6.2
2018-Jun-17 23:30N 33°35' W 118°14'2 4.0
2018-Jun-17 23:00N 33°37' W 118°14'817.0
2018-Jun-17 22:30N 33°45' W 118°11'1 2.6
2018-Jun-17 22:00N 33°46' W 118°12'1 1.6
2018-Jun-17 21:30N 33°45' W 118°11'816.8
2018-Jun-17 21:00N 33°37' W 118°11'4 7.5
2018-Jun-17 20:30N 33°33' W 118°11'4 8.0
2018-Jun-17 20:00N 33°37' W 118°10'713.6
2018-Jun-17 19:30N 33°44' W 118°11'2 4.0
2018-Jun-17 19:01N 33°46' W 118°12'0 0.0
2018-Jun-17 18:31N 33°46' W 118°12'2 4.3
2018-Jun-17 18:00N 33°44' W 118°12'1020.1
2018-Jun-17 17:30N 33°37' W 118°21'5 3.0
2018-Jun-17 15:47N 33°33' W 118°25'515.2
2018-Jun-17 15:30N 33°36' W 118°21'715.4
2018-Jun-17 15:00N 33°42' W 118°15'3 5.4
2018-Jun-17 14:31N 33°44' W 118°17'0 0.0
2018-Jun-17 14:00N 33°44' W 118°17'1 2.5
2018-Jun-17 13:30N 33°43' W 118°16'4 8.9
2018-Jun-17 13:00N 33°46' W 118°12'0 0.0
2018-Jun-17 02:14N 33°46' W 118°12'0 0.0
2018-Jun-17 02:00N 33°46' W 118°12'0 0.0
2018-Jun-17 01:30N 33°46' W 118°12'0 0.0
2018-Jun-17 01:00N 33°46' W 118°12'2 4.9
2018-Jun-17 00:30N 33°43' W 118°13'8 5.4
2018-Jun-16 23:03N 33°42' W 118°22'117.8
2018-Jun-16 22:59N 33°42' W 118°20'817.0
2018-Jun-16 22:30N 33°44' W 118°11'2 3.7
2018-Jun-16 22:00N 33°46' W 118°12'1 1.7
2018-Jun-16 21:30N 33°45' W 118°11'816.5
2018-Jun-16 21:00N 33°39' W 118°18'2 3.2
2018-Jun-16 20:29N 33°38' W 118°17'2 3.6
2018-Jun-16 20:00N 33°38' W 118°15'815.5
2018-Jun-16 19:31N 33°45' W 118°11'1 2.0
2018-Jun-16 19:00N 33°46' W 118°12'4 8.9
2018-Jun-16 18:30N 33°44' W 118°16'0 0.5
2018-Jun-16 18:00N 33°44' W 118°17'0 0.7
2018-Jun-16 17:30N 33°44' W 118°17'611.2
2018-Jun-16 17:00N 33°39' W 118°19'918.1
2018-Jun-16 16:30N 33°33' W 118°27'3 1.6
2018-Jun-16 14:48N 33°33' W 118°24'619.8
2018-Jun-16 14:30N 33°37' W 118°18'1019.1
2018-Jun-16 14:00N 33°44' W 118°11'2 3.2
2018-Jun-16 13:30N 33°46' W 118°12'0 0.0
2018-Jun-16 01:52N 33°46' W 118°12'0 0.0
2018-Jun-16 01:30N 33°46' W 118°12'0 0.6
2018-Jun-16 01:00N 33°45' W 118°12'816.2
2018-Jun-16 00:30N 33°38' W 118°09'4 6.1
2018-Jun-15 23:53N 33°34' W 118°08'1 3.8
2018-Jun-15 23:30N 33°35' W 118°07'2 3.3
2018-Jun-15 23:01N 33°36' W 118°08'917.2
2018-Jun-15 22:30N 33°44' W 118°11'2 3.1
2018-Jun-15 22:00N 33°46' W 118°12'5 9.3
2018-Jun-15 21:30N 33°41' W 118°10'713.7
2018-Jun-15 21:00N 33°35' W 118°07'1 1.2
2018-Jun-15 20:30N 33°35' W 118°06'2 4.4
2018-Jun-15 20:00N 33°36' W 118°08'917.3
2018-Jun-15 19:30N 33°45' W 118°11'1 2.5
2018-Jun-15 19:00N 33°46' W 118°12'0 0.0
2018-Jun-15 18:30N 33°46' W 118°12'0 0.0
2018-Jun-15 18:00N 33°46' W 118°12'0 0.0
2018-Jun-15 17:30N 33°46' W 118°12'0 0.0
2018-Jun-15 17:00N 33°46' W 118°12'0 0.0
2018-Jun-15 02:14N 33°46' W 118°12'0 0.0
2018-Jun-15 02:00N 33°46' W 118°12'0 0.0
2018-Jun-15 01:30N 33°46' W 118°12'0 0.0
2018-Jun-15 01:00N 33°46' W 118°12'3 6.3
2018-Jun-15 00:30N 33°43' W 118°11'917.6
2018-Jun-15 00:00N 33°35' W 118°06'1 1.7
2018-Jun-14 23:30N 33°34' W 118°07'3 5.9
2018-Jun-14 23:00N 33°37' W 118°08'816.5
2018-Jun-14 22:30N 33°45' W 118°11'1 2.7
2018-Jun-14 22:00N 33°46' W 118°12'3 6.5
2018-Jun-14 21:30N 33°43' W 118°11'918.0
2018-Jun-14 21:00N 33°35' W 118°06'4 6.9
2018-Jun-14 20:29N 33°33' W 118°02'714.8
2018-Jun-14 20:00N 33°37' W 118°09'714.1
2018-Jun-14 19:31N 33°44' W 118°11'2 3.2
2018-Jun-14 19:00N 33°46' W 118°12'0 0.0
2018-Jun-14 18:30N 33°46' W 118°12'0 0.0
2018-Jun-14 18:01N 33°46' W 118°12'4 8.7
2018-Jun-14 17:30N 33°43' W 118°16'1 2.1
2018-Jun-14 17:00N 33°44' W 118°17'3 6.2
2018-Jun-14 16:30N 33°43' W 118°13'2 4.9
2018-Jun-14 16:00N 33°46' W 118°12'0 0.0
2018-Jun-14 01:59N 33°46' W 118°12'0 0.0
2018-Jun-14 01:31N 33°46' W 118°12'0 0.0
2018-Jun-14 01:00N 33°46' W 118°12'4 8.3
2018-Jun-14 00:31N 33°43' W 118°15'918.4
2018-Jun-14 00:00N 33°45' W 118°26'5 8.1
2018-Jun-13 23:25N 33°41' W 118°22'3 6.9
2018-Jun-13 22:57N 33°41' W 118°18'715.8
2018-Jun-13 22:30N 33°44' W 118°11'2 3.2
2018-Jun-13 22:00N 33°46' W 118°12'3 6.2
2018-Jun-13 21:30N 33°43' W 118°11'917.1
2018-Jun-13 20:59N 33°35' W 118°06'0 0.7
2018-Jun-13 20:30N 33°34' W 118°06'5 8.9
2018-Jun-13 20:00N 33°38' W 118°08'612.9
2018-Jun-13 19:30N 33°44' W 118°11'1 2.9
2018-Jun-13 19:00N 33°46' W 118°12'0 0.0
2018-Jun-13 18:30N 33°46' W 118°12'0 0.0
2018-Jun-13 18:00N 33°46' W 118°12'0 0.0
2018-Jun-13 04:51N 33°46' W 118°12'0 0.0
2018-Jun-13 04:30N 33°46' W 118°12'0 0.0
2018-Jun-13 04:00N 33°46' W 118°12'0 0.0
2018-Jun-13 03:30N 33°46' W 118°12'2 4.7
2018-Jun-13 03:00N 33°45' W 118°09'3 5.0
2018-Jun-13 02:30N 33°44' W 118°12'2 4.3
2018-Jun-13 02:00N 33°46' W 118°13'2 4.3
2018-Jun-13 01:30N 33°45' W 118°11'1 2.7
2018-Jun-13 01:00N 33°46' W 118°12'0 0.0
2018-Jun-13 00:30N 33°46' W 118°12'0 0.0
2018-Jun-13 00:00N 33°46' W 118°12'0 0.0
2018-Jun-12 23:30N 33°46' W 118°12'0 0.0
2018-Jun-12 23:00N 33°46' W 118°12'0 0.0
2018-Jun-12 22:30N 33°46' W 118°12'0 0.0
2018-Jun-12 22:00N 33°46' W 118°12'0 0.0
2018-Jun-12 21:30N 33°46' W 118°12'0 0.0
2018-Jun-12 21:00N 33°46' W 118°12'0 0.0
2018-Jun-12 20:30N 33°46' W 118°12'0 0.0
2018-Jun-12 20:00N 33°46' W 118°12'0 0.0
2018-Jun-12 19:30N 33°46' W 118°12'0 0.0
2018-Jun-12 19:00N 33°46' W 118°12'0 0.0
2018-Jun-11 02:14N 33°46' W 118°12'0 0.0
2018-Jun-11 02:00N 33°46' W 118°12'0 0.0
2018-Jun-11 01:30N 33°46' W 118°12'0 0.0
2018-Jun-11 01:00N 33°46' W 118°12'5 9.4
2018-Jun-11 00:30N 33°41' W 118°09'714.0
2018-Jun-11 00:01N 33°35' W 118°06'0 0.1
2018-Jun-10 23:31N 33°35' W 118°06'2 4.6
2018-Jun-10 23:00N 33°37' W 118°08'816.3
2018-Jun-10 22:30N 33°45' W 118°11'1 3.0
2018-Jun-10 22:00N 33°46' W 118°12'1 1.2
2018-Jun-10 21:30N 33°45' W 118°11'816.4
2018-Jun-10 21:00N 33°38' W 118°08'3 6.1
2018-Jun-10 20:30N 33°35' W 118°06'4 7.5
2018-Jun-10 20:00N 33°38' W 118°08'713.6
2018-Jun-10 19:30N 33°44' W 118°11'2 3.2
2018-Jun-10 19:00N 33°46' W 118°12'2 3.9
2018-Jun-10 18:30N 33°44' W 118°11'1019.7
2018-Jun-10 18:00N 33°37' W 118°19'1121.1
2018-Jun-10 17:31N 33°30' W 118°29'8 5.4
2018-Jun-10 15:59N 33°36' W 118°22'816.1
2018-Jun-10 15:30N 33°42' W 118°15'3 5.6
2018-Jun-10 15:00N 33°44' W 118°17'0 0.1
2018-Jun-10 14:30N 33°44' W 118°17'4 4.3
2018-Jun-10 13:30N 33°46' W 118°12'0 0.0
2018-Jun-10 07:11N 33°46' W 118°12'0 0.0
2018-Jun-10 07:00N 33°46' W 118°12'0 0.0
2018-Jun-10 06:30N 33°46' W 118°12'0 0.0
2018-Jun-10 06:00N 33°46' W 118°12'1 1.9
2018-Jun-10 05:30N 33°45' W 118°11'1 2.2
2018-Jun-10 05:00N 33°44' W 118°11'2 4.4
2018-Jun-10 04:30N 33°44' W 118°08'1 2.4
2018-Jun-10 04:00N 33°44' W 118°09'2 3.2
2018-Jun-10 03:30N 33°45' W 118°10'2 3.1
2018-Jun-10 03:00N 33°46' W 118°12'0 0.0
2018-Jun-10 02:30N 33°46' W 118°12'0 0.0
2018-Jun-10 02:00N 33°46' W 118°12'0 0.0
2018-Jun-10 01:31N 33°46' W 118°12'0 0.0
2018-Jun-10 01:00N 33°46' W 118°12'0 0.7
2018-Jun-10 00:30N 33°45' W 118°12'815.0
2018-Jun-10 00:00N 33°39' W 118°06'4 3.9
2018-Jun-09 23:04N 33°36' W 118°06'218.2
2018-Jun-09 22:57N 33°37' W 118°08'817.3
2018-Jun-09 22:30N 33°45' W 118°11'1 2.8
2018-Jun-09 22:00N 33°46' W 118°12'2 3.5
2018-Jun-09 21:30N 33°44' W 118°11'918.5
2018-Jun-09 21:00N 33°35' W 118°07'2 3.3
2018-Jun-09 20:25N 33°34' W 118°05'511.6
2018-Jun-09 20:00N 33°38' W 118°09'714.8
2018-Jun-09 19:30N 33°45' W 118°11'1 1.7
2018-Jun-09 19:00N 33°46' W 118°12'3 6.5
2018-Jun-09 18:30N 33°44' W 118°09'1012.7
2018-Jun-09 17:45N 33°35' W 118°05'0 1.4
2018-Jun-09 17:31N 33°35' W 118°05'2 4.7
2018-Jun-09 17:00N 33°37' W 118°07'917.9
2018-Jun-09 16:30N 33°45' W 118°11'1 2.6
2018-Jun-09 16:00N 33°46' W 118°12'0 0.0
2018-Jun-09 15:30N 33°46' W 118°12'  
Track history (hours):
 
Tides and Currents Weather Stations Pressure Air Temp Water Temp Dewpoint Dewpoint Depression Visibility Wind Speed Wind Dir Waves Ship Positions

La Espada

Owner: Harbor Breeze Cruises, Inc., Rancho Palos Verdes, CA. More information available from US FCC via Universal Licensing System and Coast Guard Vessel Documentation Center.

Last reported at 2018-Jun-19 00:12 UTC. Time now 2018-Jun-19 04:23 UTC.
Position N 33°46' W 118°12'.

Length 25 m.

MMSI: 367724740.

Date/timePositionNaut miles runAvg speedWind from/ knotsBaromVisibWave heightAir tempDewpointWater temp
2018-Jun-19 00:12N 33°46' W 118°12'1 6.7
2018-Jun-19 00:00N 33°45' W 118°11'5 9.6
2018-Jun-18 23:30N 33°44' W 118°17'0 0.0
2018-Jun-18 23:00N 33°44' W 118°17'5 9.2
2018-Jun-18 22:29N 33°45' W 118°11'1 1.7
2018-Jun-18 22:00N 33°46' W 118°12'1 3.0
2018-Jun-18 21:30N 33°46' W 118°13'2 3.7
2018-Jun-18 21:00N 33°44' W 118°12'1 2.6
2018-Jun-18 20:30N 33°46' W 118°12'0 0.0
2018-Jun-18 19:59N 33°46' W 118°12'0 0.0
2018-Jun-18 19:30N 33°46' W 118°12'0 0.0
2018-Jun-18 01:51N 33°46' W 118°12'0 0.0
2018-Jun-18 01:30N 33°46' W 118°12'0 0.0
2018-Jun-18 01:00N 33°46' W 118°12'0 0.9
2018-Jun-18 00:30N 33°45' W 118°11'816.0
2018-Jun-18 00:00N 33°37' W 118°12'3 6.2
2018-Jun-17 23:30N 33°35' W 118°14'2 4.0
2018-Jun-17 23:00N 33°37' W 118°14'817.0
2018-Jun-17 22:30N 33°45' W 118°11'1 2.6
2018-Jun-17 22:00N 33°46' W 118°12'1 1.6
2018-Jun-17 21:30N 33°45' W 118°11'816.8
2018-Jun-17 21:00N 33°37' W 118°11'4 7.5
2018-Jun-17 20:30N 33°33' W 118°11'4 8.0
2018-Jun-17 20:00N 33°37' W 118°10'713.6
2018-Jun-17 19:30N 33°44' W 118°11'2 4.0
2018-Jun-17 19:01N 33°46' W 118°12'0 0.0
2018-Jun-17 18:31N 33°46' W 118°12'2 4.3
2018-Jun-17 18:00N 33°44' W 118°12'1020.1
2018-Jun-17 17:30N 33°37' W 118°21'5 3.0
2018-Jun-17 15:47N 33°33' W 118°25'515.2
2018-Jun-17 15:30N 33°36' W 118°21'715.4
2018-Jun-17 15:00N 33°42' W 118°15'3 5.4
2018-Jun-17 14:31N 33°44' W 118°17'0 0.0
2018-Jun-17 14:00N 33°44' W 118°17'1 2.5
2018-Jun-17 13:30N 33°43' W 118°16'4 8.9
2018-Jun-17 13:00N 33°46' W 118°12'0 0.0
2018-Jun-17 02:14N 33°46' W 118°12'0 0.0
2018-Jun-17 02:00N 33°46' W 118°12'0 0.0
2018-Jun-17 01:30N 33°46' W 118°12'0 0.0
2018-Jun-17 01:00N 33°46' W 118°12'2 4.9
2018-Jun-17 00:30N 33°43' W 118°13'8 5.4
2018-Jun-16 23:03N 33°42' W 118°22'117.8
2018-Jun-16 22:59N 33°42' W 118°20'817.0
2018-Jun-16 22:30N 33°44' W 118°11'2 3.7
2018-Jun-16 22:00N 33°46' W 118°12'1 1.7
2018-Jun-16 21:30N 33°45' W 118°11'816.5
2018-Jun-16 21:00N 33°39' W 118°18'2 3.2
2018-Jun-16 20:29N 33°38' W 118°17'2 3.6
2018-Jun-16 20:00N 33°38' W 118°15'815.5
2018-Jun-16 19:31N 33°45' W 118°11'1 2.0
2018-Jun-16 19:00N 33°46' W 118°12'4 8.9
2018-Jun-16 18:30N 33°44' W 118°16'0 0.5
2018-Jun-16 18:00N 33°44' W 118°17'0 0.7
2018-Jun-16 17:30N 33°44' W 118°17'611.2
2018-Jun-16 17:00N 33°39' W 118°19'918.1
2018-Jun-16 16:30N 33°33' W 118°27'3 1.6
2018-Jun-16 14:48N 33°33' W 118°24'619.8
2018-Jun-16 14:30N 33°37' W 118°18'1019.1
2018-Jun-16 14:00N 33°44' W 118°11'2 3.2
2018-Jun-16 13:30N 33°46' W 118°12'0 0.0
2018-Jun-16 01:52N 33°46' W 118°12'0 0.0
2018-Jun-16 01:30N 33°46' W 118°12'0 0.6
2018-Jun-16 01:00N 33°45' W 118°12'816.2
2018-Jun-16 00:30N 33°38' W 118°09'4 6.1
2018-Jun-15 23:53N 33°34' W 118°08'1 3.8
2018-Jun-15 23:30N 33°35' W 118°07'2 3.3
2018-Jun-15 23:01N 33°36' W 118°08'917.2
2018-Jun-15 22:30N 33°44' W 118°11'2 3.1
2018-Jun-15 22:00N 33°46' W 118°12'5 9.3
2018-Jun-15 21:30N 33°41' W 118°10'713.7
2018-Jun-15 21:00N 33°35' W 118°07'1 1.2
2018-Jun-15 20:30N 33°35' W 118°06'2 4.4
2018-Jun-15 20:00N 33°36' W 118°08'917.3
2018-Jun-15 19:30N 33°45' W 118°11'1 2.5
2018-Jun-15 19:00N 33°46' W 118°12'0 0.0
2018-Jun-15 18:30N 33°46' W 118°12'0 0.0
2018-Jun-15 18:00N 33°46' W 118°12'0 0.0
2018-Jun-15 17:30N 33°46' W 118°12'0 0.0
2018-Jun-15 17:00N 33°46' W 118°12'0 0.0
2018-Jun-15 02:14N 33°46' W 118°12'0 0.0
2018-Jun-15 02:00N 33°46' W 118°12'0 0.0
2018-Jun-15 01:30N 33°46' W 118°12'0 0.0
2018-Jun-15 01:00N 33°46' W 118°12'3 6.3
2018-Jun-15 00:30N 33°43' W 118°11'917.6
2018-Jun-15 00:00N 33°35' W 118°06'1 1.7
2018-Jun-14 23:30N 33°34' W 118°07'3 5.9
2018-Jun-14 23:00N 33°37' W 118°08'816.5
2018-Jun-14 22:30N 33°45' W 118°11'1 2.7
2018-Jun-14 22:00N 33°46' W 118°12'3 6.5
2018-Jun-14 21:30N 33°43' W 118°11'918.0
2018-Jun-14 21:00N 33°35' W 118°06'4 6.9
2018-Jun-14 20:29N 33°33' W 118°02'714.8
2018-Jun-14 20:00N 33°37' W 118°09'714.1
2018-Jun-14 19:31N 33°44' W 118°11'2 3.2
2018-Jun-14 19:00N 33°46' W 118°12'0 0.0
2018-Jun-14 18:30N 33°46' W 118°12'0 0.0
2018-Jun-14 18:01N 33°46' W 118°12'4 8.7
2018-Jun-14 17:30N 33°43' W 118°16'1 2.1
2018-Jun-14 17:00N 33°44' W 118°17'3 6.2
2018-Jun-14 16:30N 33°43' W 118°13'2 4.9
2018-Jun-14 16:00N 33°46' W 118°12'0 0.0
2018-Jun-14 01:59N 33°46' W 118°12'0 0.0
2018-Jun-14 01:31N 33°46' W 118°12'0 0.0
2018-Jun-14 01:00N 33°46' W 118°12'4 8.3
2018-Jun-14 00:31N 33°43' W 118°15'918.4
2018-Jun-14 00:00N 33°45' W 118°26'5 8.1
2018-Jun-13 23:25N 33°41' W 118°22'3 6.9
2018-Jun-13 22:57N 33°41' W 118°18'715.8
2018-Jun-13 22:30N 33°44' W 118°11'2 3.2
2018-Jun-13 22:00N 33°46' W 118°12'3 6.2
2018-Jun-13 21:30N 33°43' W 118°11'917.1
2018-Jun-13 20:59N 33°35' W 118°06'0 0.7
2018-Jun-13 20:30N 33°34' W 118°06'5 8.9
2018-Jun-13 20:00N 33°38' W 118°08'612.9
2018-Jun-13 19:30N 33°44' W 118°11'1 2.9
2018-Jun-13 19:00N 33°46' W 118°12'0 0.0
2018-Jun-13 18:30N 33°46' W 118°12'0 0.0
2018-Jun-13 18:00N 33°46' W 118°12'0 0.0
2018-Jun-13 04:51N 33°46' W 118°12'0 0.0
2018-Jun-13 04:30N 33°46' W 118°12'0 0.0
2018-Jun-13 04:00N 33°46' W 118°12'0 0.0
2018-Jun-13 03:30N 33°46' W 118°12'2 4.7
2018-Jun-13 03:00N 33°45' W 118°09'3 5.0
2018-Jun-13 02:30N 33°44' W 118°12'2 4.3
2018-Jun-13 02:00N 33°46' W 118°13'2 4.3
2018-Jun-13 01:30N 33°45' W 118°11'1 2.7
2018-Jun-13 01:00N 33°46' W 118°12'0 0.0
2018-Jun-13 00:30N 33°46' W 118°12'0 0.0
2018-Jun-13 00:00N 33°46' W 118°12'0 0.0
2018-Jun-12 23:30N 33°46' W 118°12'0 0.0
2018-Jun-12 23:00N 33°46' W 118°12'0 0.0
2018-Jun-12 22:30N 33°46' W 118°12'0 0.0
2018-Jun-12 22:00N 33°46' W 118°12'0 0.0
2018-Jun-12 21:30N 33°46' W 118°12'0 0.0
2018-Jun-12 21:00N 33°46' W 118°12'0 0.0
2018-Jun-12 20:30N 33°46' W 118°12'0 0.0
2018-Jun-12 20:00N 33°46' W 118°12'0 0.0
2018-Jun-12 19:30N 33°46' W 118°12'0 0.0
2018-Jun-12 19:00N 33°46' W 118°12'0 0.0
2018-Jun-11 02:14N 33°46' W 118°12'0 0.0
2018-Jun-11 02:00N 33°46' W 118°12'0 0.0
2018-Jun-11 01:30N 33°46' W 118°12'0 0.0
2018-Jun-11 01:00N 33°46' W 118°12'5 9.4
2018-Jun-11 00:30N 33°41' W 118°09'714.0
2018-Jun-11 00:01N 33°35' W 118°06'0 0.1
2018-Jun-10 23:31N 33°35' W 118°06'2 4.6
2018-Jun-10 23:00N 33°37' W 118°08'816.3
2018-Jun-10 22:30N 33°45' W 118°11'1 3.0
2018-Jun-10 22:00N 33°46' W 118°12'1 1.2
2018-Jun-10 21:30N 33°45' W 118°11'816.4
2018-Jun-10 21:00N 33°38' W 118°08'3 6.1
2018-Jun-10 20:30N 33°35' W 118°06'4 7.5
2018-Jun-10 20:00N 33°38' W 118°08'713.6
2018-Jun-10 19:30N 33°44' W 118°11'2 3.2
2018-Jun-10 19:00N 33°46' W 118°12'2 3.9
2018-Jun-10 18:30N 33°44' W 118°11'1019.7
2018-Jun-10 18:00N 33°37' W 118°19'1121.1
2018-Jun-10 17:31N 33°30' W 118°29'8 5.4
2018-Jun-10 15:59N 33°36' W 118°22'816.1
2018-Jun-10 15:30N 33°42' W 118°15'3 5.6
2018-Jun-10 15:00N 33°44' W 118°17'0 0.1
2018-Jun-10 14:30N 33°44' W 118°17'4 4.3
2018-Jun-10 13:30N 33°46' W 118°12'0 0.0
2018-Jun-10 07:11N 33°46' W 118°12'0 0.0
2018-Jun-10 07:00N 33°46' W 118°12'0 0.0
2018-Jun-10 06:30N 33°46' W 118°12'0 0.0
2018-Jun-10 06:00N 33°46' W 118°12'1 1.9
2018-Jun-10 05:30N 33°45' W 118°11'1 2.2
2018-Jun-10 05:00N 33°44' W 118°11'2 4.4
2018-Jun-10 04:30N 33°44' W 118°08'1 2.4
2018-Jun-10 04:00N 33°44' W 118°09'2 3.2
2018-Jun-10 03:30N 33°45' W 118°10'2 3.1
2018-Jun-10 03:00N 33°46' W 118°12'0 0.0
2018-Jun-10 02:30N 33°46' W 118°12'0 0.0
2018-Jun-10 02:00N 33°46' W 118°12'0 0.0
2018-Jun-10 01:31N 33°46' W 118°12'0 0.0
2018-Jun-10 01:00N 33°46' W 118°12'0 0.7
2018-Jun-10 00:30N 33°45' W 118°12'815.0
2018-Jun-10 00:00N 33°39' W 118°06'4 3.9
2018-Jun-09 23:04N 33°36' W 118°06'218.2
2018-Jun-09 22:57N 33°37' W 118°08'817.3
2018-Jun-09 22:30N 33°45' W 118°11'1 2.8
2018-Jun-09 22:00N 33°46' W 118°12'2 3.5
2018-Jun-09 21:30N 33°44' W 118°11'918.5
2018-Jun-09 21:00N 33°35' W 118°07'2 3.3
2018-Jun-09 20:25N 33°34' W 118°05'511.6
2018-Jun-09 20:00N 33°38' W 118°09'714.8
2018-Jun-09 19:30N 33°45' W 118°11'1 1.7
2018-Jun-09 19:00N 33°46' W 118°12'3 6.5
2018-Jun-09 18:30N 33°44' W 118°09'1012.7
2018-Jun-09 17:45N 33°35' W 118°05'0 1.4
2018-Jun-09 17:31N 33°35' W 118°05'2 4.7
2018-Jun-09 17:00N 33°37' W 118°07'917.9
2018-Jun-09 16:30N 33°45' W 118°11'1 2.6
2018-Jun-09 16:00N 33°46' W 118°12'0 0.0
2018-Jun-09 15:30N 33°46' W 118°12'  

Dump ship's entire track history